Nearby METAR Reports

 

EDLW - Dortmund/Wickede, Germany
Distance from station: OSO 17km
Aktuell: 23/04/2019 20:20
klar
klar
 Wind aus ONO
Wind: ONO 11 km/h
Temperatur: 18°C
Taupunkt: 9°C
Luftfeuchte: 56%
Luftdruck: 997 hPa
Zusammenfassung: klar
Visibility: greater than 10 km
2019/04/23 18:20 EDLW 231820Z 07006KT CAVOK 18/09 Q0997
EDDL - Duesseldorf, Germany
Distance from station: SW 52km
Aktuell: 23/04/2019 20:20
klar
klar
 Wind aus SO
Wind: SO 15 km/h
Temperatur: 20°C
Taupunkt: 7°C
Luftfeuchte: 43%
Luftdruck: 997 hPa
Zusammenfassung: klar
Visibility: greater than 10 km
2019/04/23 18:20 EDDL 231820Z 13008KT CAVOK 20/07 Q0997 NOSIG
 
EDDG - Muenster/Osnabru, Germany
Distance from station: NNO 67km
Aktuell: 23/04/2019 20:20
klar
klar
 Wind aus O
Wind: O 11 km/h
Temperatur: 19°C
Taupunkt: 7°C
Luftfeuchte: 46%
Luftdruck: 998 hPa
Zusammenfassung: klar
Visibility: greater than 10 km
2019/04/23 18:20 EDDG 231820Z 09006KT 040V150 CAVOK 19/07 Q0998 NOSIG
EDLN - Monchengladbach, Germany
Distance from station: WSW 72km
Aktuell: 23/04/2019 20:20
klar
klar
 Wind aus O
Wind: O 7 km/h
Temperatur: 18°C
Taupunkt: 9°C
Luftfeuchte: 56%
Luftdruck: 996 hPa
Zusammenfassung: klar
Visibility: greater than 10 km
2019/04/23 18:20 EDLN 231820Z 10004KT CAVOK 18/09 Q0996
 
EDDK - Koeln/Bonn, Germany
Distance from station: SSW 79km
Aktuell: 23/04/2019 20:20
klar
klar
 Wind aus OSO
Wind: OSO 9 km/h
Temperatur: 20°C
Taupunkt: 7°C
Luftfeuchte: 43%
Luftdruck: 997 hPa
Zusammenfassung: klar
Visibility: greater than 10 km
2019/04/23 18:20 EDDK 231820Z 12005KT CAVOK 20/07 Q0997 NOSIG
EDLP - Paderborn/Lippst, Germany
Distance from station: O 85km
Aktuell: 23/04/2019 20:20
klar
klar
 Wind aus O
Wind: O 17 km/h
Temperatur: 18°C
Taupunkt: 7°C
Luftfeuchte: 49%
Luftdruck: 999 hPa
Zusammenfassung: klar
Visibility: greater than 10 km
2019/04/23 18:20 EDLP 231820Z 09009KT CAVOK 18/07 Q0999
 
EDLV - Niederrhein, Germany
Distance from station: W 86km
Aktuell: 23/04/2019 20:20
klar
klar
 Wind aus varies
Wind: varies 6 km/h
Temperatur: 19°C
Taupunkt: 8°C
Luftfeuchte: 49%
Luftdruck: 997 hPa
Zusammenfassung: klar
Visibility: greater than 10 km
2019/04/23 18:20 EDLV 231820Z VRB03KT CAVOK 19/08 Q0997
ETNN - Noervenich (gaf), Germany
Distance from station: SSW 97km
Aktuell: 23/04/2019 20:20
stark bewölkt
stark bewölkt
 Wind aus SO
Wind: SO 6 km/h
Temperatur: 18°C
Taupunkt: 7°C
Luftfeuchte: 49%
Luftdruck: 997 hPa
Clouds: stark bewölkt
Visibility: 10 km
Cloud details: leicht bewölkt 3658 m
teilweise bewölkt 6401 m
stark bewölkt 7925 m
2019/04/23 18:20 ETNN 231820Z 14003KT 9999 FEW120 SCT210 BKN260 18/07 Q0997 BLU+